Time;durP1;ratioP1;P1;durP2;ratioP2;P2;SDS_P1;SDS_P2;PMS_P1;PMS_P2;Temp;Humidity;BMP_temperature;BMP_pressure;BME280_temperature;BME280_humidity;BME280_pressure;Samples;Min_cycle;Max_cycle;Signal;HPM_P1;HPM_P2
2022/06/29 00:00:04;;;;;;;;;;;15.80;99.90;;;;;;5065370;28;19996;-69
2022/06/29 00:02:29;;;;;;;;;;;15.80;99.90;;;;;;5045722;28;19920;-69
2022/06/29 00:04:55;;;;;;;;;;;15.80;99.90;;;;;;5048276;28;19967;-69
2022/06/29 00:07:20;;;;;;;;;;;16.80;99.90;;;;;;5059155;28;20296;-69
2022/06/29 00:09:47;;;;;;;;;;;15.70;99.90;;;;;;5065710;28;20359;-69
2022/06/29 00:12:12;;;;;;;;;;;15.70;99.90;;;;;;5045322;28;20007;-68
2022/06/29 00:14:44;;;;;;;;;;;15.80;99.90;;;;;;5065083;28;20028;-68
2022/06/29 00:17:10;;;;;;;;;;;15.80;99.90;;;;;;5061461;28;19974;-69
2022/06/29 00:19:39;;;;;;;;;;;16.20;99.90;;;;;;5057942;28;20356;-69
2022/06/29 00:22:04;;;;;;;;;;;15.90;99.90;;;;;;5044941;28;19924;-69
2022/06/29 00:24:30;;;;;;;;;;;15.90;99.90;;;;;;5054709;28;20338;-69
2022/06/29 00:26:59;;;;;;;;;;;16.60;99.90;;;;;;5053267;28;19921;-68
2022/06/29 00:29:24;;;;;;;;;;;16.00;99.90;;;;;;5054840;28;20375;-69
2022/06/29 00:31:50;;;;;;;;;;;16.00;99.90;;;;;;5044808;28;19925;-69
2022/06/29 00:34:15;;;;;;;;;;;16.00;99.90;;;;;;5044371;28;19924;-69
2022/06/29 00:36:41;;;;;;;;;;;16.10;99.90;;;;;;5054470;28;19979;-68
2022/06/29 00:39:06;;;;;;;;;;;16.10;99.90;;;;;;5054141;28;19925;-69
2022/06/29 00:41:36;;;;;;;;;;;16.10;99.90;;;;;;5053676;28;19975;-69
2022/06/29 00:44:02;;;;;;;;;;;16.10;99.90;;;;;;5054073;28;20364;-68
2022/06/29 00:46:31;;;;;;;;;;;16.40;99.90;;;;;;5044961;28;19932;-69
2022/06/29 00:48:56;;;;;;;;;;;16.10;99.90;;;;;;5052741;28;19927;-69
2022/06/29 00:51:22;;;;;;;;;;;16.10;99.90;;;;;;5044971;28;20007;-69
2022/06/29 00:53:49;;;;;;;;;;;16.10;99.90;;;;;;5044180;28;20365;-69
2022/06/29 00:56:15;;;;;;;;;;;16.00;99.90;;;;;;5049970;28;19943;-69
2022/06/29 00:58:41;;;;;;;;;;;16.00;99.90;;;;;;5053335;28;20404;-68
2022/06/29 01:01:07;;;;;;;;;;;16.00;99.90;;;;;;5053001;28;19969;-68
2022/06/29 01:03:32;;;;;;;;;;;16.40;99.90;;;;;;5044856;28;19991;-69
2022/06/29 01:05:59;;;;;;;;;;;15.90;99.90;;;;;;5053172;28;19921;-69
2022/06/29 01:08:24;;;;;;;;;;;16.00;99.90;;;;;;5053374;28;19920;-69
2022/06/29 01:10:50;;;;;;;;;;;16.00;99.90;;;;;;5043692;28;20403;-69
2022/06/29 01:13:15;;;;;;;;;;;15.90;99.90;;;;;;5053911;28;20023;-69
2022/06/29 01:15:41;;;;;;;;;;;15.90;99.90;;;;;;5050010;28;19928;-69
2022/06/29 01:18:07;;;;;;;;;;;15.90;99.90;;;;;;5052693;28;19966;-69
2022/06/29 01:20:32;;;;;;;;;;;15.90;99.90;;;;;;5063216;28;19974;-69
2022/06/29 01:22:58;;;;;;;;;;;15.90;99.90;;;;;;5062482;28;19921;-69
2022/06/29 01:25:24;;;;;;;;;;;16.20;99.90;;;;;;5063792;28;19989;-69
2022/06/29 01:27:49;;;;;;;;;;;15.90;99.90;;;;;;5043960;28;19920;-69
2022/06/29 01:30:15;;;;;;;;;;;15.90;99.90;;;;;;5064378;28;19920;-69
2022/06/29 01:32:40;;;;;;;;;;;16.10;99.90;;;;;;5062119;28;19931;-69
2022/06/29 01:35:13;;;;;;;;;;;15.80;99.90;;;;;;5064180;28;19936;-69
2022/06/29 01:37:39;;;;;;;;;;;15.90;99.90;;;;;;5060243;28;20322;-68
2022/06/29 01:40:05;;;;;;;;;;;15.80;99.90;;;;;;5043175;28;19978;-67
2022/06/29 01:42:31;;;;;;;;;;;15.80;99.90;;;;;;5064423;28;19928;-68
2022/06/29 01:44:57;;;;;;;;;;;15.80;99.90;;;;;;5061516;28;20283;-69
2022/06/29 01:47:22;;;;;;;;;;;15.90;99.90;;;;;;5045341;28;19927;-69
2022/06/29 01:49:48;;;;;;;;;;;15.90;99.90;;;;;;5045893;28;19920;-69
2022/06/29 01:52:13;;;;;;;;;;;15.90;99.90;;;;;;5058762;28;19920;-68
2022/06/29 01:54:39;;;;;;;;;;;15.90;99.90;;;;;;5064956;28;19920;-68
2022/06/29 01:57:05;;;;;;;;;;;16.00;99.90;;;;;;5042246;28;19975;-69
2022/06/29 01:59:30;;;;;;;;;;;16.00;99.90;;;;;;5064569;28;19975;-68
2022/06/29 02:01:59;;;;;;;;;;;16.00;99.90;;;;;;5043684;28;20357;-69
2022/06/29 02:04:24;;;;;;;;;;;16.00;99.90;;;;;;5062820;28;20031;-69
2022/06/29 02:06:50;;;;;;;;;;;16.10;99.90;;;;;;5062375;28;20011;-69
2022/06/29 02:09:15;;;;;;;;;;;16.00;99.90;;;;;;5060983;28;19921;-69
2022/06/29 02:11:41;;;;;;;;;;;16.00;99.90;;;;;;5062772;28;19967;-69
2022/06/29 02:14:06;;;;;;;;;;;16.10;99.90;;;;;;5042990;28;20003;-69
2022/06/29 02:16:32;;;;;;;;;;;16.10;99.90;;;;;;5047000;28;19920;-69
2022/06/29 02:18:58;;;;;;;;;;;16.10;99.90;;;;;;5055749;28;20031;-68
2022/06/29 02:21:23;;;;;;;;;;;16.10;99.90;;;;;;5042907;28;19921;-69
2022/06/29 02:23:49;;;;;;;;;;;16.10;99.90;;;;;;5052334;28;20272;-69
2022/06/29 02:26:15;;;;;;;;;;;18.50;99.90;;;;;;5051679;28;19921;-69
2022/06/29 02:28:41;;;;;;;;;;;16.10;99.90;;;;;;5042759;28;20257;-69
2022/06/29 02:36:34;;;;;;;;;;;16.20;99.90;;;;;;5049156;28;20388;-69
2022/06/29 02:39:00;;;;;;;;;;;16.20;99.90;;;;;;5052013;28;19964;-69
2022/06/29 02:41:26;;;;;;;;;;;16.20;99.90;;;;;;5051507;28;20365;-69
2022/06/29 02:43:51;;;;;;;;;;;16.10;99.90;;;;;;5051516;28;20007;-69
2022/06/29 02:46:17;;;;;;;;;;;16.10;99.90;;;;;;5051718;28;20015;-68
2022/06/29 02:48:42;;;;;;;;;;;16.10;99.90;;;;;;5051784;28;19928;-68
2022/06/29 02:51:08;;;;;;;;;;;16.00;99.90;;;;;;5051505;28;19928;-68
2022/06/29 02:53:34;;;;;;;;;;;16.10;99.90;;;;;;5051475;28;19928;-68
2022/06/29 02:55:59;;;;;;;;;;;16.00;99.90;;;;;;5051773;28;20391;-69
2022/06/29 02:58:25;;;;;;;;;;;16.00;99.90;;;;;;5052271;28;19927;-68
2022/06/29 03:00:50;;;;;;;;;;;16.00;99.90;;;;;;5040355;28;19935;-68
2022/06/29 03:03:16;;;;;;;;;;;15.90;99.90;;;;;;5042422;28;19920;-68
2022/06/29 03:05:41;;;;;;;;;;;16.00;99.90;;;;;;5051639;28;19921;-69
2022/06/29 03:08:07;;;;;;;;;;;15.80;99.90;;;;;;5040900;28;20004;-68
2022/06/29 03:10:32;;;;;;;;;;;15.90;99.90;;;;;;5041945;28;19920;-69
2022/06/29 03:12:58;;;;;;;;;;;15.80;99.90;;;;;;5041400;28;19921;-68
2022/06/29 03:15:25;;;;;;;;;;;15.80;99.90;;;;;;5051489;28;19924;-68
2022/06/29 03:17:54;;;;;;;;;;;15.80;99.90;;;;;;5046951;28;20388;-69
2022/06/29 03:20:19;;;;;;;;;;;15.70;99.90;;;;;;5042761;28;20410;-69
2022/06/29 03:22:46;;;;;;;;;;;15.70;99.90;;;;;;5055328;28;19929;-69
2022/06/29 03:25:14;;;;;;;;;;;16.00;99.90;;;;;;5055547;28;19932;-69
2022/06/29 03:27:40;;;;;;;;;;;15.70;99.90;;;;;;5042878;28;20329;-68
2022/06/29 03:30:06;;;;;;;;;;;15.70;99.90;;;;;;5054637;28;19925;-68
2022/06/29 03:32:32;;;;;;;;;;;15.70;99.90;;;;;;5055355;28;19921;-68
2022/06/29 03:34:57;;;;;;;;;;;15.70;99.90;;;;;;5055252;28;19920;-69
2022/06/29 03:37:23;;;;;;;;;;;15.70;99.90;;;;;;5044826;28;20376;-68
2022/06/29 03:39:49;;;;;;;;;;;16.30;99.90;;;;;;5055613;28;19928;-69
2022/06/29 03:42:14;;;;;;;;;;;15.70;99.90;;;;;;5055638;28;19996;-68
2022/06/29 03:44:40;;;;;;;;;;;15.70;99.90;;;;;;5054642;28;19931;-68
2022/06/29 03:47:07;;;;;;;;;;;15.80;99.90;;;;;;5044897;28;20031;-68
2022/06/29 03:49:33;;;;;;;;;;;15.80;99.90;;;;;;5054867;28;19964;-68
2022/06/29 03:51:59;;;;;;;;;;;15.80;99.90;;;;;;5044906;28;19921;-68
2022/06/29 03:54:24;;;;;;;;;;;15.90;99.90;;;;;;5055172;28;19920;-68
2022/06/29 03:56:50;;;;;;;;;;;15.90;99.90;;;;;;5044981;28;19924;-69
2022/06/29 03:59:15;;;;;;;;;;;15.90;99.90;;;;;;5055273;28;20013;-68
2022/06/29 04:01:41;;;;;;;;;;;15.90;99.90;;;;;;5054473;28;19960;-68
2022/06/29 04:04:06;;;;;;;;;;;16.20;99.90;;;;;;5053432;28;19964;-68
2022/06/29 04:06:32;;;;;;;;;;;16.00;99.90;;;;;;5055266;28;19931;-68
2022/06/29 04:08:57;;;;;;;;;;;16.10;99.90;;;;;;5054794;28;19920;-68
2022/06/29 04:14:07;;;;;;;;;;;16.10;99.90;;;;;;5054923;28;19921;-68
2022/06/29 04:16:33;;;;;;;;;;;16.20;99.90;;;;;;5054612;28;20016;-68
2022/06/29 04:18:58;;;;;;;;;;;16.20;99.90;;;;;;5053528;28;19932;-68
2022/06/29 04:21:26;;;;;;;;;;;16.10;99.90;;;;;;5054209;28;20376;-68
2022/06/29 04:23:51;;;;;;;;;;;17.00;99.90;;;;;;5054375;28;19947;-69
2022/06/29 04:26:18;;;;;;;;;;;16.50;99.90;;;;;;5053776;28;20250;-68
2022/06/29 04:28:44;;;;;;;;;;;16.50;99.90;;;;;;5054567;28;19921;-68
2022/06/29 04:31:09;;;;;;;;;;;16.90;99.90;;;;;;5044560;28;20354;-68
2022/06/29 04:33:35;;;;;;;;;;;16.60;99.90;;;;;;5052677;28;20829;-69
2022/06/29 04:36:01;;;;;;;;;;;16.70;99.90;;;;;;5053879;28;20392;-69
2022/06/29 04:38:26;;;;;;;;;;;16.80;99.90;;;;;;5054214;28;19921;-69
2022/06/29 04:40:52;;;;;;;;;;;16.70;99.90;;;;;;5053257;28;19936;-69
2022/06/29 04:43:18;;;;;;;;;;;16.80;99.90;;;;;;5044146;28;20430;-69
2022/06/29 04:48:27;;;;;;;;;;;16.80;99.90;;;;;;5054252;28;19952;-68
2022/06/29 04:50:53;;;;;;;;;;;16.70;99.90;;;;;;5053971;28;19927;-69
2022/06/29 04:53:18;;;;;;;;;;;16.60;99.90;;;;;;5052403;28;19920;-72
2022/06/29 04:55:44;;;;;;;;;;;16.70;99.90;;;;;;5042040;28;20016;-71
2022/06/29 04:58:09;;;;;;;;;;;16.70;99.90;;;;;;5053509;28;20099;-70
2022/06/29 05:00:35;;;;;;;;;;;16.70;99.90;;;;;;5052955;28;19938;-71
2022/06/29 05:03:00;;;;;;;;;;;16.70;99.90;;;;;;5044035;28;19964;-70
2022/06/29 05:05:25;;;;;;;;;;;16.70;99.90;;;;;;5053799;28;20277;-68
2022/06/29 05:07:51;;;;;;;;;;;16.80;99.90;;;;;;5052640;28;20350;-68
2022/06/29 05:10:17;;;;;;;;;;;16.80;99.90;;;;;;5053099;28;19920;-69
2022/06/29 05:12:42;;;;;;;;;;;16.80;99.90;;;;;;5039620;28;19917;-69
2022/06/29 05:15:08;;;;;;;;;;;16.80;99.90;;;;;;5052568;28;19971;-69
2022/06/29 05:17:36;;;;;;;;;;;16.90;99.90;;;;;;5043888;28;19921;-71
2022/06/29 05:20:08;;;;;;;;;;;16.90;99.90;;;;;;5049276;28;19971;-72
2022/06/29 05:22:34;;;;;;;;;;;17.10;99.90;;;;;;5049577;28;20027;-72
2022/06/29 05:25:00;;;;;;;;;;;16.90;99.90;;;;;;5048895;28;20412;-71
2022/06/29 05:27:26;;;;;;;;;;;17.10;99.90;;;;;;5053216;28;20003;-73
2022/06/29 05:29:51;;;;;;;;;;;17.00;99.90;;;;;;5052423;28;19976;-74
2022/06/29 05:32:17;;;;;;;;;;;17.10;99.90;;;;;;5044125;28;19970;-80
2022/06/29 05:34:42;;;;;;;;;;;17.10;99.90;;;;;;5053492;28;19983;-78
2022/06/29 05:37:08;;;;;;;;;;;17.20;99.90;;;;;;5052443;28;19921;-75
2022/06/29 05:39:33;;;;;;;;;;;17.20;99.90;;;;;;5043100;28;19920;-76
2022/06/29 05:41:59;;;;;;;;;;;17.30;99.90;;;;;;5052851;28;19921;-77
2022/06/29 05:44:24;;;;;;;;;;;17.30;99.90;;;;;;5042263;28;19920;-77
2022/06/29 05:46:50;;;;;;;;;;;17.30;99.90;;;;;;5052910;28;20058;-75
2022/06/29 05:49:16;;;;;;;;;;;17.30;99.90;;;;;;5051328;28;19927;-75
2022/06/29 05:51:44;;;;;;;;;;;17.50;99.90;;;;;;5051093;28;19920;-77
2022/06/29 05:54:10;;;;;;;;;;;17.50;99.90;;;;;;5051722;28;19951;-77
2022/06/29 05:56:35;;;;;;;;;;;17.60;99.90;;;;;;5051334;28;19920;-88
2022/06/29 05:59:01;;;;;;;;;;;17.70;99.90;;;;;;5050645;28;19959;-76
2022/06/29 06:01:26;;;;;;;;;;;17.80;99.90;;;;;;5051757;28;19974;-75
2022/06/29 06:03:52;;;;;;;;;;;18.10;99.90;;;;;;5051216;28;20331;-76
2022/06/29 06:06:17;;;;;;;;;;;17.90;99.90;;;;;;5052576;28;20011;-73
2022/06/29 06:08:43;;;;;;;;;;;18.00;99.90;;;;;;5052360;28;19980;-74
2022/06/29 06:11:08;;;;;;;;;;;18.10;99.90;;;;;;5040323;28;20261;-77
2022/06/29 06:13:34;;;;;;;;;;;18.20;99.90;;;;;;5052599;28;19974;-73
2022/06/29 06:15:59;;;;;;;;;;;18.30;99.90;;;;;;5052334;28;19967;-74
2022/06/29 06:18:27;;;;;;;;;;;18.30;99.90;;;;;;5054794;28;19928;-73
2022/06/29 06:20:53;;;;;;;;;;;18.40;99.90;;;;;;5038622;28;19927;-74
2022/06/29 06:23:20;;;;;;;;;;;18.50;99.90;;;;;;5063930;28;19920;-75
2022/06/29 06:25:46;;;;;;;;;;;18.50;99.90;;;;;;5060141;28;19920;-75
2022/06/29 06:28:11;;;;;;;;;;;18.50;99.90;;;;;;5062800;28;20415;-74
2022/06/29 06:30:37;;;;;;;;;;;18.60;99.90;;;;;;5043466;28;19920;-75
2022/06/29 06:33:03;;;;;;;;;;;18.70;99.90;;;;;;5060715;28;19921;-76
2022/06/29 06:35:28;;;;;;;;;;;18.80;99.90;;;;;;5045092;28;19921;-78
2022/06/29 06:37:54;;;;;;;;;;;18.90;99.90;;;;;;5060514;28;19920;-73
2022/06/29 06:43:03;;;;;;;;;;;19.00;99.90;;;;;;5057203;28;19921;-75
2022/06/29 06:45:29;;;;;;;;;;;19.10;99.90;;;;;;5061784;28;19921;-76
2022/06/29 06:47:54;;;;;;;;;;;19.10;99.90;;;;;;5041861;28;19956;-74
2022/06/29 06:50:20;;;;;;;;;;;19.60;99.90;;;;;;5045876;28;19924;-75
2022/06/29 06:52:45;;;;;;;;;;;19.30;99.90;;;;;;5056759;28;19921;-75
2022/06/29 06:55:13;;;;;;;;;;;19.40;99.90;;;;;;5061558;28;20007;-74
2022/06/29 06:57:38;;;;;;;;;;;19.50;99.90;;;;;;5041948;28;19928;-74
2022/06/29 07:00:04;;;;;;;;;;;19.60;99.90;;;;;;5060728;28;19920;-75
2022/06/29 07:02:30;;;;;;;;;;;19.70;99.90;;;;;;5061258;28;19979;-75
2022/06/29 07:04:56;;;;;;;;;;;19.80;99.90;;;;;;5060837;28;20011;-75
2022/06/29 07:07:21;;;;;;;;;;;19.90;99.90;;;;;;5062289;28;19920;-75
2022/06/29 07:09:47;;;;;;;;;;;19.90;99.90;;;;;;5042425;28;19943;-74
2022/06/29 07:12:15;;;;;;;;;;;20.10;99.90;;;;;;5045788;28;20426;-76
2022/06/29 07:14:41;;;;;;;;;;;20.40;99.90;;;;;;5063741;28;19921;-75
2022/06/29 07:17:07;;;;;;;;;;;20.70;99.90;;;;;;5041675;28;19991;-75
2022/06/29 07:19:32;;;;;;;;;;;20.50;99.90;;;;;;5055606;28;20402;-75
2022/06/29 07:21:58;;;;;;;;;;;20.70;99.90;;;;;;5040762;28;20352;-75
2022/06/29 07:24:23;;;;;;;;;;;21.10;99.90;;;;;;5051802;28;19931;-75
2022/06/29 07:26:49;;;;;;;;;;;22.00;99.90;;;;;;5051338;28;20011;-75
2022/06/29 07:29:14;;;;;;;;;;;25.30;99.70;;;;;;5050675;28;19921;-75
2022/06/29 07:31:40;;;;;;;;;;;23.60;98.30;;;;;;5051792;28;19920;-75
2022/06/29 07:34:05;;;;;;;;;;;23.90;97.70;;;;;;5050894;28;19996;-75
2022/06/29 07:36:31;;;;;;;;;;;24.30;96.80;;;;;;5040246;28;19924;-75
2022/06/29 07:38:57;;;;;;;;;;;24.80;96.50;;;;;;5041146;28;19924;-75
2022/06/29 07:41:22;;;;;;;;;;;25.20;96.20;;;;;;5051373;28;20299;-76
2022/06/29 07:43:48;;;;;;;;;;;25.40;94.20;;;;;;5047584;28;20410;-75
2022/06/29 07:46:14;;;;;;;;;;;25.50;94.50;;;;;;5042376;28;19921;-75
2022/06/29 07:48:39;;;;;;;;;;;25.60;94.20;;;;;;5047886;28;19921;-75
2022/06/29 07:51:05;;;;;;;;;;;25.90;95.00;;;;;;5048055;28;19987;-75
2022/06/29 07:53:31;;;;;;;;;;;26.20;94.40;;;;;;5049900;28;19924;-75
2022/06/29 07:55:56;;;;;;;;;;;26.60;94.80;;;;;;5026799;28;19928;-75
2022/06/29 07:58:22;;;;;;;;;;;26.90;94.10;;;;;;5048850;28;19924;-75
2022/06/29 08:00:48;;;;;;;;;;;27.20;94.40;;;;;;5034284;28;19999;-74
2022/06/29 08:03:13;;;;;;;;;;;27.50;93.00;;;;;;5040258;28;20011;-75
2022/06/29 08:05:40;;;;;;;;;;;27.50;92.60;;;;;;5039080;28;20054;-76
2022/06/29 08:08:08;;;;;;;;;;;27.50;92.70;;;;;;5037281;28;19967;-74
2022/06/29 08:10:34;;;;;;;;;;;27.20;93.40;;;;;;5049076;28;19920;-73
2022/06/29 08:13:00;;;;;;;;;;;27.60;92.00;;;;;;5052461;28;19931;-74
2022/06/29 08:15:26;;;;;;;;;;;28.00;93.00;;;;;;5041222;28;19936;-75
2022/06/29 08:17:52;;;;;;;;;;;28.30;92.70;;;;;;5051017;28;20357;-74
2022/06/29 08:20:18;;;;;;;;;;;28.40;91.60;;;;;;5058074;28;19971;-74
2022/06/29 08:22:47;;;;;;;;;;;28.60;92.20;;;;;;5062580;28;20015;-75
2022/06/29 08:25:13;;;;;;;;;;;29.00;91.50;;;;;;5063151;28;19927;-74
2022/06/29 08:27:39;;;;;;;;;;;28.80;92.20;;;;;;5039941;28;19920;-74
2022/06/29 08:30:05;;;;;;;;;;;29.00;91.90;;;;;;5062334;28;19921;-74
2022/06/29 08:32:31;;;;;;;;;;;29.10;91.50;;;;;;5044143;28;19967;-74
2022/06/29 08:35:01;;;;;;;;;;;29.30;90.70;;;;;;5062506;28;19959;-74
2022/06/29 08:37:27;;;;;;;;;;;29.60;91.50;;;;;;5043546;28;19920;-74
2022/06/29 08:39:53;;;;;;;;;;;29.90;91.30;;;;;;5041252;28;20430;-74
2022/06/29 08:42:20;;;;;;;;;;;29.90;90.50;;;;;;5037806;28;19920;-75
2022/06/29 08:44:47;;;;;;;;;;;29.80;90.70;;;;;;5063249;28;19927;-74
2022/06/29 08:47:12;;;;;;;;;;;29.60;90.70;;;;;;5045208;28;19921;-74
2022/06/29 08:49:38;;;;;;;;;;;29.60;90.90;;;;;;5064774;28;19920;-75
2022/06/29 08:52:04;;;;;;;;;;;29.80;90.30;;;;;;5061696;28;20392;-75
2022/06/29 08:54:31;;;;;;;;;;;29.80;90.00;;;;;;5066260;28;19927;-74
2022/06/29 08:56:57;;;;;;;;;;;29.80;90.70;;;;;;5061746;28;19942;-75
2022/06/29 08:59:23;;;;;;;;;;;29.80;90.30;;;;;;5060790;28;19954;-75
2022/06/29 09:01:49;;;;;;;;;;;29.80;88.60;;;;;;5062935;28;20015;-75
2022/06/29 09:04:15;;;;;;;;;;;29.90;90.00;;;;;;5064603;28;19921;-75
2022/06/29 09:06:41;;;;;;;;;;;30.10;90.60;;;;;;5044763;28;20307;-73
2022/06/29 09:09:06;;;;;;;;;;;30.30;91.30;;;;;;5063235;28;20295;-74
2022/06/29 09:11:32;;;;;;;;;;;30.30;90.40;;;;;;5062661;28;19920;-74
2022/06/29 09:14:08;;;;;;;;;;;30.70;89.10;;;;;;5064200;28;19920;-75
2022/06/29 09:16:50;;;;;;;;;;;30.90;87.70;;;;;;5058496;28;20402;-75
2022/06/29 09:19:16;;;;;;;;;;;31.30;88.70;;;;;;5057654;28;19981;-75
2022/06/29 09:21:45;;;;;;;;;;;31.30;89.60;;;;;;5052633;28;19925;-75
2022/06/29 09:24:18;;;;;;;;;;;31.40;87.00;;;;;;5044142;28;20296;-76
2022/06/29 09:26:51;;;;;;;;;;;31.00;88.10;;;;;;5053311;28;21218;-76
2022/06/29 09:29:27;;;;;;;;;;;30.40;88.40;;;;;;5042944;28;19927;-76
2022/06/29 09:32:05;;;;;;;;;;;30.00;88.10;;;;;;5035990;28;19944;-75
2022/06/29 09:34:31;;;;;;;;;;;29.90;89.00;;;;;;5049835;28;20288;-76
2022/06/29 09:36:57;;;;;;;;;;;29.80;89.40;;;;;;5052791;28;19921;-76
2022/06/29 09:39:32;;;;;;;;;;;29.80;90.10;;;;;;5043621;28;19928;-76
2022/06/29 09:41:58;;;;;;;;;;;30.00;89.80;;;;;;5042436;28;19927;-75
2022/06/29 09:44:23;;;;;;;;;;;30.20;90.50;;;;;;5053375;28;19928;-76
2022/06/29 09:46:49;;;;;;;;;;;30.60;88.40;;;;;;5052964;28;19994;-76
2022/06/29 09:49:16;;;;;;;;;;;30.70;90.00;;;;;;5051989;28;19921;-76
2022/06/29 09:51:42;;;;;;;;;;;31.00;88.60;;;;;;5052594;28;19938;-76
2022/06/29 09:54:10;;;;;;;;;;;31.30;88.70;;;;;;5043367;28;19921;-76
2022/06/29 09:56:39;;;;;;;;;;;31.20;88.00;;;;;;5042529;28;20007;-75
2022/06/29 09:59:05;;;;;;;;;;;31.00;87.60;;;;;;5052717;28;20379;-76
2022/06/29 10:04:15;;;;;;;;;;;30.80;88.70;;;;;;5048231;28;19921;-75
2022/06/29 10:06:42;;;;;;;;;;;30.40;87.70;;;;;;5052478;28;19929;-75
2022/06/29 10:09:07;;;;;;;;;;;29.90;89.40;;;;;;5042815;28;20028;-75
2022/06/29 10:14:35;;;;;;;;;;;29.30;90.00;;;;;;5050682;28;19920;-75
2022/06/29 10:17:08;;;;;;;;;;;29.90;90.30;;;;;;5051392;28;19974;-74
2022/06/29 10:19:39;;;;;;;;;;;30.20;88.50;;;;;;5052225;28;20361;-75
2022/06/29 10:22:04;;;;;;;;;;;30.20;88.00;;;;;;5042689;28;19921;-75
2022/06/29 10:24:30;;;;;;;;;;;30.40;89.00;;;;;;5051672;28;19920;-75
2022/06/29 10:26:56;;;;;;;;;;;30.20;87.90;;;;;;5051934;28;19927;-75
2022/06/29 10:29:24;;;;;;;;;;;30.40;89.60;;;;;;5051848;28;19940;-75
2022/06/29 10:31:59;;;;;;;;;;;30.60;89.80;;;;;;5041425;28;19986;-74
2022/06/29 10:34:28;;;;;;;;;;;30.80;89.10;;;;;;5042725;28;20288;-75
2022/06/29 10:37:02;;;;;;;;;;;30.80;87.90;;;;;;5038877;28;19925;-75
2022/06/29 10:39:40;;;;;;;;;;;30.80;87.90;;;;;;5042002;28;19920;-74
2022/06/29 10:44:59;;;;;;;;;;;30.80;87.80;;;;;;5049181;28;19971;-74
2022/06/29 10:47:25;;;;;;;;;;;30.90;86.60;;;;;;5051809;28;19957;-75
2022/06/29 10:50:23;;;;;;;;;;;30.80;86.90;;;;;;5042111;28;19924;-75
2022/06/29 10:52:49;;;;;;;;;;;30.50;86.80;;;;;;5054294;28;19966;-75
2022/06/29 10:55:15;;;;;;;;;;;30.70;85.40;;;;;;5051999;28;20020;-75
2022/06/29 10:57:47;;;;;;;;;;;30.70;85.80;;;;;;5042688;28;19967;-75
2022/06/29 11:00:17;;;;;;;;;;;30.60;85.60;;;;;;5041111;28;20011;-75
2022/06/29 11:02:43;;;;;;;;;;;30.80;86.30;;;;;;5052018;28;19928;-76
2022/06/29 11:05:09;;;;;;;;;;;30.60;84.50;;;;;;5051838;28;19967;-75
2022/06/29 11:13:02;;;;;;;;;;;30.10;86.10;;;;;;5033946;28;20351;-76
2022/06/29 11:15:45;;;;;;;;;;;30.20;85.10;;;;;;5051151;28;19924;-75
2022/06/29 11:18:12;;;;;;;;;;;30.30;84.40;;;;;;5048259;28;19974;-75
2022/06/29 11:20:38;;;;;;;;;;;30.40;85.50;;;;;;5041428;28;19967;-76
2022/06/29 11:23:08;;;;;;;;;;;30.40;84.80;;;;;;5051747;28;19939;-76
2022/06/29 11:25:37;;;;;;;;;;;30.50;84.20;;;;;;5048867;28;19968;-76
2022/06/29 11:28:04;;;;;;;;;;;30.60;86.50;;;;;;5040478;28;19947;-76
2022/06/29 11:30:29;;;;;;;;;;;30.40;85.70;;;;;;5047563;28;19921;-76
2022/06/29 11:32:55;;;;;;;;;;;30.30;84.50;;;;;;5041621;28;19920;-75
2022/06/29 11:35:21;;;;;;;;;;;30.40;83.80;;;;;;5050854;28;19916;-75
2022/06/29 11:37:48;;;;;;;;;;;30.60;84.40;;;;;;5051475;28;19920;-75
2022/06/29 11:40:17;;;;;;;;;;;30.40;85.30;;;;;;5051054;28;19921;-76
2022/06/29 11:45:37;;;;;;;;;;;30.30;85.20;;;;;;5054733;28;19960;-75
2022/06/29 11:48:09;;;;;;;;;;;30.40;84.30;;;;;;5051100;28;19921;-75
2022/06/29 11:50:41;;;;;;;;;;;30.20;85.60;;;;;;5045783;28;19928;-76
2022/06/29 11:53:06;;;;;;;;;;;30.20;86.50;;;;;;5054828;28;20391;-75
2022/06/29 11:55:44;;;;;;;;;;;30.30;83.90;;;;;;5045328;28;19921;-75
2022/06/29 11:58:11;;;;;;;;;;;30.30;83.80;;;;;;5054802;28;20402;-75
2022/06/29 12:00:39;;;;;;;;;;;30.30;81.60;;;;;;5054877;28;20299;-76
2022/06/29 12:03:04;;;;;;;;;;;30.20;80.30;;;;;;5044143;28;19928;-76
2022/06/29 12:05:30;;;;;;;;;;;29.80;83.20;;;;;;5055130;28;20280;-76
2022/06/29 12:07:55;;;;;;;;;;;29.70;81.70;;;;;;5054904;28;19947;-75
2022/06/29 12:10:21;;;;;;;;;;;29.80;84.80;;;;;;5053796;28;19924;-76
2022/06/29 12:12:47;;;;;;;;;;;30.00;83.00;;;;;;5045539;28;19971;-75
2022/06/29 12:15:14;;;;;;;;;;;30.10;82.40;;;;;;5054022;28;19921;-75
2022/06/29 12:17:40;;;;;;;;;;;29.90;84.50;;;;;;5054133;28;20284;-75
2022/06/29 12:20:06;;;;;;;;;;;30.10;84.90;;;;;;5062161;28;20004;-74
2022/06/29 12:22:33;;;;;;;;;;;30.10;83.60;;;;;;5065700;28;19924;-75
2022/06/29 12:24:59;;;;;;;;;;;30.00;84.90;;;;;;5044628;28;19921;-75
2022/06/29 12:27:24;;;;;;;;;;;30.20;84.70;;;;;;5045949;28;19927;-75
2022/06/29 12:29:50;;;;;;;;;;;30.10;83.00;;;;;;5062589;28;19921;-76
2022/06/29 12:32:19;;;;;;;;;;;29.90;82.40;;;;;;5040355;28;20288;-75
2022/06/29 12:34:44;;;;;;;;;;;29.90;83.40;;;;;;5066006;28;19928;-76
2022/06/29 12:37:10;;;;;;;;;;;30.10;83.10;;;;;;5060261;28;19935;-76
2022/06/29 12:39:35;;;;;;;;;;;30.10;82.80;;;;;;5046927;28;19920;-76
2022/06/29 12:42:02;;;;;;;;;;;30.10;81.90;;;;;;5064298;28;19978;-77
2022/06/29 12:44:28;;;;;;;;;;;30.10;82.40;;;;;;5062945;28;19931;-77
2022/06/29 12:46:53;;;;;;;;;;;30.20;84.60;;;;;;5065452;28;19999;-77
2022/06/29 12:49:19;;;;;;;;;;;30.40;85.80;;;;;;5044855;28;19924;-76
2022/06/29 12:51:45;;;;;;;;;;;29.90;84.80;;;;;;5054408;28;19920;-75
2022/06/29 12:54:10;;;;;;;;;;;30.80;81.80;;;;;;5063286;28;19917;-76
2022/06/29 12:56:36;;;;;;;;;;;31.00;81.20;;;;;;5045629;28;19921;-76
2022/06/29 12:59:01;;;;;;;;;;;31.00;80.70;;;;;;5044841;28;19925;-76
2022/06/29 13:01:27;;;;;;;;;;;30.80;80.50;;;;;;5064841;28;19986;-75
2022/06/29 13:03:53;;;;;;;;;;;30.90;83.10;;;;;;5044358;28;19931;-71
2022/06/29 13:06:18;;;;;;;;;;;31.00;81.30;;;;;;5046652;28;20007;-67
2022/06/29 13:08:46;;;;;;;;;;;30.90;81.30;;;;;;5046313;28;19925;-67
2022/06/29 13:11:12;;;;;;;;;;;30.70;78.20;;;;;;5061720;28;20015;-67
2022/06/29 13:13:39;;;;;;;;;;;30.50;78.00;;;;;;5046957;28;20295;-69
2022/06/29 13:16:05;;;;;;;;;;;30.40;78.20;;;;;;5044482;28;19920;-69
2022/06/29 13:18:31;;;;;;;;;;;30.40;79.60;;;;;;5040311;28;20304;-69
2022/06/29 13:20:56;;;;;;;;;;;30.30;80.50;;;;;;5027135;28;20335;-70
2022/06/29 13:23:22;;;;;;;;;;;30.20;79.70;;;;;;5034017;28;19925;-71
2022/06/29 13:25:47;;;;;;;;;;;30.30;78.70;;;;;;5033432;28;19921;-69
2022/06/29 13:28:13;;;;;;;;;;;30.30;77.90;;;;;;5031551;28;19921;-70
2022/06/29 13:30:39;;;;;;;;;;;30.40;80.70;;;;;;5031164;28;20248;-71
2022/06/29 13:33:04;;;;;;;;;;;30.30;79.50;;;;;;5031202;28;19942;-71
2022/06/29 13:35:31;;;;;;;;;;;30.50;79.20;;;;;;5032375;28;19967;-71
2022/06/29 13:37:58;;;;;;;;;;;30.70;81.90;;;;;;5032576;28;19921;-69
2022/06/29 13:40:24;;;;;;;;;;;30.60;80.60;;;;;;5030681;28;20011;-71
2022/06/29 13:42:49;;;;;;;;;;;30.20;78.90;;;;;;5031430;28;20024;-68
2022/06/29 13:45:15;;;;;;;;;;;30.20;79.00;;;;;;5033448;28;19975;-71
2022/06/29 13:47:40;;;;;;;;;;;30.10;79.80;;;;;;5031488;28;19921;-69
2022/06/29 13:50:06;;;;;;;;;;;30.10;79.40;;;;;;5032980;28;19979;-70
2022/06/29 13:52:31;;;;;;;;;;;30.20;81.30;;;;;;5031813;28;19976;-74
2022/06/29 13:54:57;;;;;;;;;;;30.20;78.50;;;;;;5030206;28;19987;-73
2022/06/29 13:57:23;;;;;;;;;;;30.00;78.80;;;;;;5028679;28;19921;-74
2022/06/29 13:59:49;;;;;;;;;;;30.20;80.10;;;;;;5031813;28;19944;-72
2022/06/29 14:02:15;;;;;;;;;;;30.00;81.80;;;;;;5030556;28;19921;-71
2022/06/29 14:04:40;;;;;;;;;;;30.10;80.10;;;;;;5032210;28;19975;-71
2022/06/29 14:07:06;;;;;;;;;;;29.90;80.40;;;;;;5032540;28;19921;-71
2022/06/29 14:09:31;;;;;;;;;;;30.00;79.40;;;;;;5030495;28;20012;-71
2022/06/29 14:11:57;;;;;;;;;;;30.20;79.20;;;;;;5029197;28;19921;-74
2022/06/29 14:14:23;;;;;;;;;;;30.20;80.10;;;;;;5031258;28;19990;-71
2022/06/29 14:16:48;;;;;;;;;;;30.20;82.30;;;;;;5031555;28;19932;-71
2022/06/29 14:19:14;;;;;;;;;;;30.20;81.10;;;;;;5041334;28;19920;-71
2022/06/29 14:21:39;;;;;;;;;;;30.10;82.00;;;;;;5052167;28;19932;-71
2022/06/29 14:24:05;;;;;;;;;;;29.90;82.10;;;;;;5051135;28;19921;-69
2022/06/29 14:26:30;;;;;;;;;;;30.00;81.70;;;;;;5037376;28;20337;-71
2022/06/29 14:28:56;;;;;;;;;;;29.90;82.30;;;;;;5037325;28;19960;-69
2022/06/29 14:31:21;;;;;;;;;;;29.70;81.20;;;;;;5048496;28;19932;-72
2022/06/29 14:33:47;;;;;;;;;;;29.90;81.30;;;;;;5051343;28;19928;-70
2022/06/29 14:36:12;;;;;;;;;;;29.90;81.70;;;;;;5051315;28;19921;-73
2022/06/29 14:38:38;;;;;;;;;;;30.10;83.20;;;;;;5040788;28;20393;-70
2022/06/29 14:41:03;;;;;;;;;;;30.40;85.40;;;;;;5051853;28;20395;-71